Time;durP1;ratioP1;P1;durP2;ratioP2;P2;SDS_P1;SDS_P2;PMS_P1;PMS_P2;Temp;Humidity;BMP_temperature;BMP_pressure;BME280_temperature;BME280_humidity;BME280_pressure;Samples;Min_cycle;Max_cycle;Signal;HPM_P1;HPM_P2
2022/08/23 00:01:33;;;;;;;12.18;7.45;;;;;;;;;;5029388;28;20660;-64
2022/08/23 00:04:02;;;;;;;9.93;7.47;;;;;;;;;;5022610;28;20297;-64
2022/08/23 00:06:28;;;;;;;10.55;7.75;;;;;;;;;;5022151;28;20711;-64
2022/08/23 00:08:54;;;;;;;9.50;7.78;;;;;;;;;;5018441;28;20265;-64
2022/08/23 00:11:26;;;;;;;13.30;7.63;;;;;;;;;;5027887;28;20186;-64
2022/08/23 00:13:51;;;;;;;13.68;8.32;;;;;;;;;;5015506;28;20627;-64
2022/08/23 00:16:17;;;;;;;13.63;9.73;;;;;;;;;;5027737;28;20170;-64
2022/08/23 00:18:42;;;;;;;13.27;10.25;;;;;;;;;;5025451;28;20183;-64
2022/08/23 00:21:08;;;;;;;17.75;10.10;;;;;;;;;;5019528;28;20190;-64
2022/08/23 00:23:33;;;;;;;11.73;9.75;;;;;;;;;;5026613;28;20582;-64
2022/08/23 00:26:02;;;;;;;16.27;10.68;;;;;;;;;;5021023;28;20260;-64
2022/08/23 00:28:28;;;;;;;11.80;10.57;;;;;;;;;;5026633;28;20185;-64
2022/08/23 00:30:54;;;;;;;13.35;11.82;;;;;;;;;;5023594;28;20185;-64
2022/08/23 00:33:20;;;;;;;12.82;11.55;;;;;;;;;;5030751;28;20249;-64
2022/08/23 00:35:46;;;;;;;14.13;11.65;;;;;;;;;;5019785;28;20217;-64
2022/08/23 00:38:11;;;;;;;15.35;11.18;;;;;;;;;;5026225;28;20218;-64
2022/08/23 00:40:36;;;;;;;16.70;11.32;;;;;;;;;;5028986;28;20186;-64
2022/08/23 00:49:00;;;;;;;12.93;10.93;;;;;;;;;;5010343;28;20217;-64
2022/08/23 00:51:44;;;;;;;11.95;10.27;;;;;;;;;;5021903;28;20244;-64
2022/08/23 00:54:11;;;;;;;21.85;10.75;;;;;;;;;;5028340;28;20214;-64
2022/08/23 00:56:38;;;;;;;14.50;10.52;;;;;;;;;;5028635;28;20182;-64
2022/08/23 00:59:05;;;;;;;16.50;10.45;;;;;;;;;;5027935;28;20181;-64
2022/08/23 01:01:31;;;;;;;13.75;10.65;;;;;;;;;;5028366;28;20177;-64
2022/08/23 01:03:57;;;;;;;13.43;10.75;;;;;;;;;;5028055;28;20607;-64
2022/08/23 01:06:29;;;;;;;14.00;12.02;;;;;;;;;;5028860;28;20190;-64
2022/08/23 01:09:00;;;;;;;20.60;11.93;;;;;;;;;;5030620;28;20300;-64
2022/08/23 01:11:32;;;;;;;13.60;11.88;;;;;;;;;;5025809;28;20268;-64
2022/08/23 01:14:12;;;;;;;17.95;12.35;;;;;;;;;;5027654;28;20524;-64
2022/08/23 01:16:46;;;;;;;15.00;11.50;;;;;;;;;;5028663;28;20189;-64
2022/08/23 01:19:18;;;;;;;16.40;12.75;;;;;;;;;;5024103;28;20186;-64
2022/08/23 01:21:51;;;;;;;14.23;12.48;;;;;;;;;;5019747;28;20205;-65
2022/08/23 01:24:17;;;;;;;17.17;13.63;;;;;;;;;;5026291;28;20586;-64
2022/08/23 01:26:43;;;;;;;15.27;13.30;;;;;;;;;;5028470;28;20183;-64
2022/08/23 01:29:09;;;;;;;17.02;14.15;;;;;;;;;;5024757;28;20628;-64
2022/08/23 01:31:35;;;;;;;17.65;13.98;;;;;;;;;;5028647;28;20720;-64
2022/08/23 01:34:05;;;;;;;17.30;13.00;;;;;;;;;;5021541;28;20772;-64
2022/08/23 01:36:31;;;;;;;15.77;12.93;;;;;;;;;;5015501;28;20209;-64
2022/08/23 01:38:57;;;;;;;17.35;13.82;;;;;;;;;;5026526;28;20258;-64
2022/08/23 01:41:22;;;;;;;15.52;13.73;;;;;;;;;;5027258;28;20635;-64
2022/08/23 01:43:48;;;;;;;17.95;13.60;;;;;;;;;;5028006;28;20178;-64
2022/08/23 01:46:17;;;;;;;16.08;13.90;;;;;;;;;;5024212;28;20228;-64
2022/08/23 01:48:45;;;;;;;15.00;13.50;;;;;;;;;;5028306;28;20182;-64
2022/08/23 01:51:11;;;;;;;19.00;14.65;;;;;;;;;;5023472;28;20205;-64
2022/08/23 01:53:37;;;;;;;18.13;14.45;;;;;;;;;;5028261;28;20182;-64
2022/08/23 01:56:04;;;;;;;19.35;13.95;;;;;;;;;;5021379;28;20197;-64
2022/08/23 01:58:33;;;;;;;16.90;14.70;;;;;;;;;;5027531;28;20190;-64
2022/08/23 02:01:00;;;;;;;15.05;13.48;;;;;;;;;;5026519;28;20649;-64
2022/08/23 02:03:27;;;;;;;19.70;15.25;;;;;;;;;;5027760;28;20181;-64
2022/08/23 02:05:54;;;;;;;18.38;14.00;;;;;;;;;;5023484;28;20669;-64
2022/08/23 02:11:11;;;;;;;17.67;14.45;;;;;;;;;;5021179;28;20328;-64
2022/08/23 02:13:36;;;;;;;17.38;14.05;;;;;;;;;;5028135;28;20265;-64
2022/08/23 02:16:03;;;;;;;16.25;13.50;;;;;;;;;;5017571;28;20322;-64
2022/08/23 02:18:29;;;;;;;16.63;13.57;;;;;;;;;;5027468;28;20197;-64
2022/08/23 02:20:54;;;;;;;19.65;14.65;;;;;;;;;;5014087;28;20183;-64
2022/08/23 02:23:21;;;;;;;18.17;14.00;;;;;;;;;;5027765;28;20381;-64
2022/08/23 02:25:47;;;;;;;16.00;14.35;;;;;;;;;;5026805;28;20228;-64
2022/08/23 02:28:12;;;;;;;16.98;15.10;;;;;;;;;;5021363;28;20667;-64
2022/08/23 02:30:38;;;;;;;17.17;14.55;;;;;;;;;;5017753;28;20294;-64
2022/08/23 02:33:04;;;;;;;14.98;13.48;;;;;;;;;;5031772;28;20670;-64
2022/08/23 02:35:32;;;;;;;17.02;13.82;;;;;;;;;;5029015;28;20316;-64
2022/08/23 02:37:57;;;;;;;16.88;14.98;;;;;;;;;;5028962;28;20186;-64
2022/08/23 02:40:23;;;;;;;18.30;15.50;;;;;;;;;;5031335;28;20756;-64
2022/08/23 02:42:48;;;;;;;16.60;14.45;;;;;;;;;;5031476;28;20204;-64
2022/08/23 02:45:14;;;;;;;19.10;15.98;;;;;;;;;;5027697;28;20181;-64
2022/08/23 02:47:40;;;;;;;19.23;15.98;;;;;;;;;;5031080;28;20190;-64
2022/08/23 02:50:07;;;;;;;20.88;16.85;;;;;;;;;;5030398;28;20561;-64
2022/08/23 02:52:33;;;;;;;19.52;17.30;;;;;;;;;;5030682;28;20186;-64
2022/08/23 02:54:59;;;;;;;18.70;16.73;;;;;;;;;;5026425;28;20197;-64
2022/08/23 02:57:25;;;;;;;19.70;17.58;;;;;;;;;;5030770;28;20265;-64
2022/08/23 02:59:51;;;;;;;20.20;17.58;;;;;;;;;;5030447;28;20386;-64
2022/08/23 03:02:16;;;;;;;21.15;17.98;;;;;;;;;;5020841;28;20187;-64
2022/08/23 03:04:42;;;;;;;19.15;17.05;;;;;;;;;;5028512;28;20825;-64
2022/08/23 03:07:07;;;;;;;24.35;17.23;;;;;;;;;;5030163;28;20186;-64
2022/08/23 03:09:33;;;;;;;21.83;16.50;;;;;;;;;;5022379;28;20209;-64
2022/08/23 03:11:58;;;;;;;19.95;17.15;;;;;;;;;;5029837;28;20701;-64
2022/08/23 03:14:24;;;;;;;22.80;18.48;;;;;;;;;;5030365;28;20173;-64
2022/08/23 03:16:49;;;;;;;20.17;16.90;;;;;;;;;;5030562;28;20181;-64
2022/08/23 03:19:15;;;;;;;22.23;17.02;;;;;;;;;;5030154;28;20606;-64
2022/08/23 03:21:41;;;;;;;20.92;17.02;;;;;;;;;;5030390;28;20293;-64
2022/08/23 03:24:07;;;;;;;21.58;17.23;;;;;;;;;;5029626;28;20237;-64
2022/08/23 03:26:33;;;;;;;20.73;16.20;;;;;;;;;;5020999;28;20183;-64
2022/08/23 03:28:58;;;;;;;19.30;16.92;;;;;;;;;;5023914;28;20347;-64
2022/08/23 03:31:24;;;;;;;21.83;17.08;;;;;;;;;;5024294;28;20295;-64
2022/08/23 03:33:50;;;;;;;22.83;16.92;;;;;;;;;;5028466;28;20213;-64
2022/08/23 03:36:15;;;;;;;17.88;15.80;;;;;;;;;;5028477;28;20182;-64
2022/08/23 03:38:41;;;;;;;19.15;16.88;;;;;;;;;;5028640;28;20178;-64
2022/08/23 03:41:07;;;;;;;21.42;19.08;;;;;;;;;;5019048;28;20205;-64
2022/08/23 03:43:33;;;;;;;22.55;19.00;;;;;;;;;;5029971;28;20313;-64
2022/08/23 03:45:58;;;;;;;21.42;19.13;;;;;;;;;;5021554;28;20204;-64
2022/08/23 03:48:23;;;;;;;22.08;19.15;;;;;;;;;;5029558;28;20178;-64
2022/08/23 03:50:49;;;;;;;23.17;19.13;;;;;;;;;;5029210;28;20208;-64
2022/08/23 03:53:15;;;;;;;25.52;19.23;;;;;;;;;;5029580;28;20174;-64
2022/08/23 03:55:42;;;;;;;21.60;19.33;;;;;;;;;;5021947;28;20183;-64
2022/08/23 03:58:07;;;;;;;23.48;19.42;;;;;;;;;;5023482;28;20197;-64
2022/08/23 04:00:33;;;;;;;21.55;19.35;;;;;;;;;;5020620;28;20751;-64
2022/08/23 04:02:59;;;;;;;21.85;18.75;;;;;;;;;;5024004;28;20194;-64
2022/08/23 04:05:25;;;;;;;21.45;19.15;;;;;;;;;;5024470;28;20627;-64
2022/08/23 04:07:50;;;;;;;24.15;18.52;;;;;;;;;;5026702;28;20189;-64
2022/08/23 04:10:16;;;;;;;22.17;18.45;;;;;;;;;;5030149;28;20711;-64
2022/08/23 04:12:42;;;;;;;22.90;19.70;;;;;;;;;;5029520;28;20178;-65
2022/08/23 04:15:08;;;;;;;21.58;18.83;;;;;;;;;;5026498;28;20412;-64
2022/08/23 04:17:35;;;;;;;22.25;19.33;;;;;;;;;;5029406;28;20178;-64
2022/08/23 04:20:01;;;;;;;21.63;19.23;;;;;;;;;;5028409;28;20590;-65
2022/08/23 04:22:27;;;;;;;22.33;18.17;;;;;;;;;;5015234;28;20174;-64
2022/08/23 04:24:52;;;;;;;23.88;19.13;;;;;;;;;;5020288;28;20232;-64
2022/08/23 04:27:17;;;;;;;20.38;18.23;;;;;;;;;;5025711;28;20182;-64
2022/08/23 04:29:43;;;;;;;22.10;18.88;;;;;;;;;;5029084;28;20202;-64
2022/08/23 04:32:10;;;;;;;25.95;20.02;;;;;;;;;;5039323;28;20216;-64
2022/08/23 04:34:38;;;;;;;20.90;18.83;;;;;;;;;;5028966;28;20541;-64
2022/08/23 04:37:04;;;;;;;21.92;19.48;;;;;;;;;;5014422;28;20189;-64
2022/08/23 04:42:16;;;;;;;24.55;19.98;;;;;;;;;;5029116;28;20180;-64
2022/08/23 04:42:18;;;;;;;23.70;21.27;;;;;;;;;;5028024;28;20201;-64
2022/08/23 04:44:43;;;;;;;23.95;21.45;;;;;;;;;;5029238;28;20265;-64
2022/08/23 04:47:08;;;;;;;26.55;21.80;;;;;;;;;;5024451;28;20289;-65
2022/08/23 04:49:34;;;;;;;24.23;21.35;;;;;;;;;;5028097;28;20226;-64
2022/08/23 04:51:59;;;;;;;27.15;20.58;;;;;;;;;;5028647;28;20645;-65
2022/08/23 04:54:25;;;;;;;27.25;22.15;;;;;;;;;;5018771;28;20170;-65
2022/08/23 04:56:51;;;;;;;23.35;20.95;;;;;;;;;;5027351;28;20264;-64
2022/08/23 04:59:16;;;;;;;23.80;21.20;;;;;;;;;;5028517;28;20205;-64
2022/08/23 05:01:41;;;;;;;24.08;20.73;;;;;;;;;;5028482;28;20649;-64
2022/08/23 05:04:07;;;;;;;25.33;21.90;;;;;;;;;;5028758;28;20557;-64
2022/08/23 05:06:33;;;;;;;25.33;20.63;;;;;;;;;;5017866;28;20457;-64
2022/08/23 05:08:59;;;;;;;25.23;20.25;;;;;;;;;;5036489;28;20268;-64
2022/08/23 05:11:24;;;;;;;25.95;20.02;;;;;;;;;;5028351;28;20488;-64
2022/08/23 05:13:49;;;;;;;24.38;20.33;;;;;;;;;;5028409;28;20209;-64
2022/08/23 05:16:15;;;;;;;22.92;20.58;;;;;;;;;;5017176;28;20249;-64
2022/08/23 05:18:41;;;;;;;25.10;20.77;;;;;;;;;;5024904;28;20749;-64
2022/08/23 05:21:06;;;;;;;23.75;21.08;;;;;;;;;;5017048;28;20277;-64
2022/08/23 05:23:32;;;;;;;26.98;21.80;;;;;;;;;;5027717;28;20688;-64
2022/08/23 05:25:58;;;;;;;27.85;22.92;;;;;;;;;;5022030;28;20313;-64
2022/08/23 05:28:27;;;;;;;24.75;21.52;;;;;;;;;;5020974;28;20193;-64
2022/08/23 05:31:04;;;;;;;24.58;21.20;;;;;;;;;;5030009;28;20209;-64
2022/08/23 05:33:31;;;;;;;24.60;22.00;;;;;;;;;;5035290;28;20236;-64
2022/08/23 05:35:57;;;;;;;22.90;20.45;;;;;;;;;;5027657;28;20178;-64
2022/08/23 05:38:23;;;;;;;23.98;21.45;;;;;;;;;;5028256;28;20208;-64
2022/08/23 05:40:54;;;;;;;23.33;21.02;;;;;;;;;;5013239;28;20182;-64
2022/08/23 05:43:20;;;;;;;24.23;21.17;;;;;;;;;;5027919;28;20190;-64
2022/08/23 05:45:46;;;;;;;22.83;20.38;;;;;;;;;;5027157;28;20513;-64
2022/08/23 05:48:14;;;;;;;21.63;19.38;;;;;;;;;;5027843;28;20181;-64
2022/08/23 05:50:40;;;;;;;22.42;19.90;;;;;;;;;;5015941;28;20600;-64
2022/08/23 05:53:07;;;;;;;24.27;19.92;;;;;;;;;;5024492;28;20196;-64
2022/08/23 05:55:32;;;;;;;25.27;19.90;;;;;;;;;;5027911;28;20194;-64
2022/08/23 05:57:58;;;;;;;21.70;19.50;;;;;;;;;;5027310;28;20186;-64
2022/08/23 06:00:24;;;;;;;23.38;20.20;;;;;;;;;;5028147;28;20179;-64
2022/08/23 06:02:49;;;;;;;22.65;20.33;;;;;;;;;;5028919;28;20252;-64
2022/08/23 06:05:15;;;;;;;23.15;19.67;;;;;;;;;;5027487;28;20205;-64
2022/08/23 06:07:41;;;;;;;23.08;18.55;;;;;;;;;;5024003;28;20185;-64
2022/08/23 06:10:07;;;;;;;21.73;19.23;;;;;;;;;;5031141;28;20294;-65
2022/08/23 06:12:33;;;;;;;21.00;17.98;;;;;;;;;;5030991;28;20228;-64
2022/08/23 06:14:59;;;;;;;22.92;17.58;;;;;;;;;;5031428;28;20181;-64
2022/08/23 06:17:24;;;;;;;19.50;17.02;;;;;;;;;;5022821;28;20212;-64
2022/08/23 06:19:49;;;;;;;20.65;16.92;;;;;;;;;;5031447;28;20178;-64
2022/08/23 06:22:15;;;;;;;19.00;17.05;;;;;;;;;;5029801;28;20185;-64
2022/08/23 06:24:40;;;;;;;19.23;16.63;;;;;;;;;;5031077;28;20234;-64
2022/08/23 06:27:06;;;;;;;18.73;16.73;;;;;;;;;;5030422;28;20552;-64
2022/08/23 06:29:31;;;;;;;18.95;15.90;;;;;;;;;;5029756;28;20202;-65
2022/08/23 06:31:57;;;;;;;19.50;15.70;;;;;;;;;;5031163;28;20579;-65
2022/08/23 06:34:32;;;;;;;16.55;14.82;;;;;;;;;;5030006;28;20284;-64
2022/08/23 06:36:59;;;;;;;17.58;13.98;;;;;;;;;;5030422;28;20251;-64
2022/08/23 06:39:28;;;;;;;15.35;13.32;;;;;;;;;;5030807;28;20174;-64
2022/08/23 06:41:59;;;;;;;18.70;12.75;;;;;;;;;;5030889;28;20218;-64
2022/08/23 06:44:26;;;;;;;13.63;12.18;;;;;;;;;;5030776;28;20174;-64
2022/08/23 06:46:51;;;;;;;12.77;11.13;;;;;;;;;;5029883;28;20189;-65
2022/08/23 06:49:17;;;;;;;13.10;11.10;;;;;;;;;;5016300;28;20553;-65
2022/08/23 06:51:47;;;;;;;15.63;11.32;;;;;;;;;;5028882;28;20197;-65
2022/08/23 06:54:14;;;;;;;15.30;11.43;;;;;;;;;;5030810;28;20179;-65
2022/08/23 06:56:40;;;;;;;12.07;10.65;;;;;;;;;;5028419;28;20190;-65
2022/08/23 06:59:06;;;;;;;12.50;9.48;;;;;;;;;;5031150;28;20178;-65
2022/08/23 07:01:54;;;;;;;13.13;10.32;;;;;;;;;;5027807;28;20209;-64
2022/08/23 07:04:24;;;;;;;14.60;9.75;;;;;;;;;;5030519;28;20186;-65
2022/08/23 07:06:50;;;;;;;12.43;9.85;;;;;;;;;;5026570;28;20201;-64
2022/08/23 07:09:15;;;;;;;16.05;9.93;;;;;;;;;;5038368;28;20771;-64
2022/08/23 07:11:41;;;;;;;11.48;8.80;;;;;;;;;;5025604;28;20278;-64
2022/08/23 07:14:10;;;;;;;14.93;8.43;;;;;;;;;;5030810;28;20202;-64
2022/08/23 07:16:46;;;;;;;13.75;8.60;;;;;;;;;;5026008;28;20181;-65
2022/08/23 07:19:13;;;;;;;10.70;8.20;;;;;;;;;;5024794;28;20239;-65
2022/08/23 07:21:39;;;;;;;10.77;7.93;;;;;;;;;;5024646;28;20245;-64
2022/08/23 07:24:05;;;;;;;8.70;6.10;;;;;;;;;;5028953;28;20329;-65
2022/08/23 07:26:30;;;;;;;13.00;8.00;;;;;;;;;;5028590;28;20276;-64
2022/08/23 07:28:56;;;;;;;20.10;7.78;;;;;;;;;;5029639;28;20192;-65
2022/08/23 07:31:30;;;;;;;10.18;7.82;;;;;;;;;;5031844;28;20201;-65
2022/08/23 07:34:02;;;;;;;11.07;7.25;;;;;;;;;;5026109;28;20196;-65
2022/08/23 07:36:29;;;;;;;13.23;7.22;;;;;;;;;;5027276;28;20265;-65
2022/08/23 07:38:55;;;;;;;9.98;6.93;;;;;;;;;;5025281;28;20543;-65
2022/08/23 07:41:24;;;;;;;9.27;6.82;;;;;;;;;;5028405;28;20277;-65
2022/08/23 07:43:50;;;;;;;7.50;5.80;;;;;;;;;;5021709;28;20618;-64
2022/08/23 07:46:15;;;;;;;10.48;5.72;;;;;;;;;;5020852;28;20213;-64
2022/08/23 07:48:41;;;;;;;7.45;5.40;;;;;;;;;;5030529;28;20727;-65
2022/08/23 07:51:12;;;;;;;9.15;5.20;;;;;;;;;;5030046;28;20209;-64
2022/08/23 07:53:38;;;;;;;11.68;5.38;;;;;;;;;;5020998;28;20201;-65
2022/08/23 07:56:09;;;;;;;12.35;5.35;;;;;;;;;;5029892;28;20198;-66
2022/08/23 07:58:35;;;;;;;8.40;5.22;;;;;;;;;;5020080;28;20189;-65
2022/08/23 08:01:16;;;;;;;8.05;5.72;;;;;;;;;;5029335;28;20677;-64
2022/08/23 08:03:44;;;;;;;9.00;6.32;;;;;;;;;;5019690;28;20618;-65
2022/08/23 08:06:15;;;;;;;10.98;5.90;;;;;;;;;;5030426;28;20269;-65
2022/08/23 08:08:42;;;;;;;11.45;4.97;;;;;;;;;;5022780;28;20256;-64
2022/08/23 08:11:09;;;;;;;9.07;5.38;;;;;;;;;;5020334;28;20285;-65
2022/08/23 08:13:39;;;;;;;14.88;6.38;;;;;;;;;;5028747;28;20186;-65
2022/08/23 08:16:06;;;;;;;9.88;5.97;;;;;;;;;;5029884;28;20194;-65
2022/08/23 08:18:31;;;;;;;12.70;6.35;;;;;;;;;;5028774;28;20660;-64
2022/08/23 08:20:57;;;;;;;9.82;6.18;;;;;;;;;;5030159;28;20182;-65
2022/08/23 08:23:22;;;;;;;11.27;5.85;;;;;;;;;;5026613;28;20186;-65
2022/08/23 08:25:48;;;;;;;8.70;4.60;;;;;;;;;;5028045;28;20226;-64
2022/08/23 08:28:13;;;;;;;7.90;5.68;;;;;;;;;;5028845;28;20240;-65
2022/08/23 08:30:38;;;;;;;12.80;6.60;;;;;;;;;;5029631;28;20271;-65
2022/08/23 08:33:04;;;;;;;8.70;5.95;;;;;;;;;;5031329;28;20213;-65
2022/08/23 08:35:29;;;;;;;10.25;7.10;;;;;;;;;;5028608;28;20186;-65
2022/08/23 08:37:55;;;;;;;10.23;6.43;;;;;;;;;;5028599;28;20189;-65
2022/08/23 08:40:29;;;;;;;13.90;6.03;;;;;;;;;;5021337;28;20190;-64
2022/08/23 08:43:15;;;;;;;11.40;6.60;;;;;;;;;;5014703;28;20197;-65
2022/08/23 08:45:56;;;;;;;8.88;6.97;;;;;;;;;;5028747;28;20337;-65
2022/08/23 08:48:23;;;;;;;10.70;7.03;;;;;;;;;;5023717;28;20181;-65
2022/08/23 08:50:54;;;;;;;10.00;6.60;;;;;;;;;;5029200;28;20405;-66
2022/08/23 08:53:37;;;;;;;8.35;6.35;;;;;;;;;;5022942;28;20555;-65
2022/08/23 08:56:22;;;;;;;10.30;6.68;;;;;;;;;;5028039;28;20240;-65
2022/08/23 08:58:54;;;;;;;14.05;7.22;;;;;;;;;;5028832;28;20225;-65
2022/08/23 09:01:23;;;;;;;11.57;8.18;;;;;;;;;;5028677;28;20699;-65
2022/08/23 09:03:48;;;;;;;12.52;6.63;;;;;;;;;;5018383;28;20197;-66
2022/08/23 09:06:42;;;;;;;8.60;6.47;;;;;;;;;;5022071;28;20186;-65
2022/08/23 09:09:27;;;;;;;10.93;7.15;;;;;;;;;;5033770;28;20210;-65
2022/08/23 09:12:18;;;;;;;9.05;6.45;;;;;;;;;;5025245;28;20213;-65
2022/08/23 09:15:02;;;;;;;11.18;7.13;;;;;;;;;;5021553;28;20281;-64
2022/08/23 09:17:41;;;;;;;12.23;7.40;;;;;;;;;;5023609;28;20189;-64
2022/08/23 09:20:09;;;;;;;13.07;7.10;;;;;;;;;;5022561;28;20708;-64
2022/08/23 09:22:41;;;;;;;10.52;6.70;;;;;;;;;;5023036;28;20179;-64
2022/08/23 09:25:10;;;;;;;16.00;7.30;;;;;;;;;;5022264;28;20304;-64
2022/08/23 09:27:36;;;;;;;11.40;6.72;;;;;;;;;;5008546;28;20269;-65
2022/08/23 09:30:04;;;;;;;8.05;6.43;;;;;;;;;;5020671;28;20228;-64
2022/08/23 09:32:38;;;;;;;10.18;7.13;;;;;;;;;;5038052;28;20601;-65
2022/08/23 09:35:20;;;;;;;14.43;6.78;;;;;;;;;;5021742;28;20179;-64
2022/08/23 09:38:00;;;;;;;9.43;5.70;;;;;;;;;;5022167;28;20190;-64
2022/08/23 09:40:36;;;;;;;12.10;6.25;;;;;;;;;;5032754;28;20177;-65
2022/08/23 09:43:06;;;;;;;11.65;6.82;;;;;;;;;;5019719;28;20186;-65
2022/08/23 09:45:35;;;;;;;10.07;5.72;;;;;;;;;;5032894;28;20658;-65
2022/08/23 09:48:01;;;;;;;10.02;5.93;;;;;;;;;;5018536;28;20727;-65
2022/08/23 09:50:32;;;;;;;10.20;5.00;;;;;;;;;;5032616;28;20197;-65
2022/08/23 09:53:01;;;;;;;8.05;4.57;;;;;;;;;;5029354;28;20181;-65
2022/08/23 09:55:34;;;;;;;10.05;5.88;;;;;;;;;;5033294;28;20269;-66
2022/08/23 09:58:03;;;;;;;8.13;5.32;;;;;;;;;;5029520;28;20251;-65
2022/08/23 10:00:35;;;;;;;14.48;5.32;;;;;;;;;;5031609;28;20181;-65
2022/08/23 10:03:25;;;;;;;8.00;4.38;;;;;;;;;;5031124;28;20305;-65
2022/08/23 10:05:53;;;;;;;8.48;4.00;;;;;;;;;;5031968;28;20211;-64
2022/08/23 10:08:31;;;;;;;9.43;2.90;;;;;;;;;;5024165;28;20236;-65
2022/08/23 10:11:21;;;;;;;8.88;2.92;;;;;;;;;;5032414;28;20285;-65
2022/08/23 10:13:46;;;;;;;10.38;3.10;;;;;;;;;;5031610;28;20574;-65
2022/08/23 10:16:37;;;;;;;7.75;2.95;;;;;;;;;;5032380;28;20188;-65
2022/08/23 10:19:09;;;;;;;5.88;3.10;;;;;;;;;;5027055;28;20186;-65
2022/08/23 10:21:37;;;;;;;3.47;2.38;;;;;;;;;;5010999;28;20179;-65
2022/08/23 10:24:21;;;;;;;5.20;3.33;;;;;;;;;;5030237;28;20249;-65
2022/08/23 10:26:59;;;;;;;5.53;2.47;;;;;;;;;;5031784;28;20175;-66
2022/08/23 10:29:42;;;;;;;5.97;2.55;;;;;;;;;;5021258;28;20233;-65
2022/08/23 10:32:42;;;;;;;12.07;3.25;;;;;;;;;;5041333;28;20382;-66
2022/08/23 10:35:28;;;;;;;6.95;3.20;;;;;;;;;;5031021;28;20190;-65
2022/08/23 10:38:12;;;;;;;7.72;2.90;;;;;;;;;;5013928;28;20635;-65
2022/08/23 10:41:22;;;;;;;8.88;3.08;;;;;;;;;;5024232;28;20217;-66
2022/08/23 10:44:18;;;;;;;7.10;3.22;;;;;;;;;;5004662;28;20191;-65
2022/08/23 10:47:10;;;;;;;6.78;3.33;;;;;;;;;;5011712;28;20270;-65
2022/08/23 10:49:38;;;;;;;5.57;2.47;;;;;;;;;;5020271;28;20210;-65
2022/08/23 10:52:06;;;;;;;6.35;3.15;;;;;;;;;;5031976;28;20227;-65
2022/08/23 10:54:45;;;;;;;8.27;2.90;;;;;;;;;;5017946;28;20170;-66
2022/08/23 10:57:15;;;;;;;5.40;3.15;;;;;;;;;;5030851;28;20178;-68
2022/08/23 10:59:42;;;;;;;7.15;2.50;;;;;;;;;;5017041;28;20186;-65
2022/08/23 11:02:25;;;;;;;8.45;3.20;;;;;;;;;;5032004;28;20192;-65
2022/08/23 11:04:50;;;;;;;10.10;2.90;;;;;;;;;;5030674;28;20194;-66
2022/08/23 11:07:41;;;;;;;7.10;3.20;;;;;;;;;;5031928;28;20595;-65
2022/08/23 11:10:14;;;;;;;6.25;2.75;;;;;;;;;;5026696;28;20558;-65
2022/08/23 11:13:04;;;;;;;5.60;2.63;;;;;;;;;;5031012;28;20190;-64
2022/08/23 11:15:38;;;;;;;7.40;2.90;;;;;;;;;;5028703;28;20194;-66
2022/08/23 11:18:07;;;;;;;8.02;3.47;;;;;;;;;;5027120;28;20265;-66
2022/08/23 11:20:48;;;;;;;7.90;3.40;;;;;;;;;;5028790;28;20654;-65
2022/08/23 11:23:32;;;;;;;8.07;3.30;;;;;;;;;;5030377;28;20186;-66
2022/08/23 11:25:58;;;;;;;8.48;3.38;;;;;;;;;;5016836;28;20257;-66
2022/08/23 11:28:26;;;;;;;7.03;3.92;;;;;;;;;;5028527;28;20669;-66
2022/08/23 11:31:06;;;;;;;9.48;3.13;;;;;;;;;;5025741;28;20301;-65
2022/08/23 11:33:50;;;;;;;5.03;3.10;;;;;;;;;;5036567;28;20181;-65
2022/08/23 11:36:22;;;;;;;7.47;3.05;;;;;;;;;;5018544;28;20604;-66
2022/08/23 11:38:47;;;;;;;6.13;2.97;;;;;;;;;;5027945;28;20190;-64
2022/08/23 11:41:18;;;;;;;5.70;3.10;;;;;;;;;;5030437;28;20537;-64
2022/08/23 11:43:48;;;;;;;8.70;3.08;;;;;;;;;;5022244;28;20700;-65
2022/08/23 11:46:25;;;;;;;4.68;3.05;;;;;;;;;;5029649;28;20182;-65
2022/08/23 11:49:32;;;;;;;6.68;3.38;;;;;;;;;;5021780;28;20633;-65
2022/08/23 11:52:06;;;;;;;7.22;2.88;;;;;;;;;;5020517;28;20279;-66
2022/08/23 11:55:13;;;;;;;5.53;3.38;;;;;;;;;;5017931;28;20189;-65
2022/08/23 11:57:57;;;;;;;7.22;3.38;;;;;;;;;;5029074;28;20919;-65
2022/08/23 12:00:51;;;;;;;8.65;3.95;;;;;;;;;;5029184;28;20586;-65
2022/08/23 12:03:43;;;;;;;9.13;4.43;;;;;;;;;;5015186;28;20222;-65
2022/08/23 12:06:34;;;;;;;7.22;3.80;;;;;;;;;;5031049;28;20192;-65
2022/08/23 12:09:03;;;;;;;8.13;3.70;;;;;;;;;;5028905;28;20202;-65
2022/08/23 12:11:54;;;;;;;11.63;4.10;;;;;;;;;;5030475;28;20704;-63
2022/08/23 12:14:35;;;;;;;8.23;3.42;;;;;;;;;;5017888;28;20200;-62
2022/08/23 12:17:10;;;;;;;8.43;3.25;;;;;;;;;;5029103;28;20541;-63
2022/08/23 12:19:47;;;;;;;9.30;3.40;;;;;;;;;;5027061;28;20170;-63
2022/08/23 12:22:16;;;;;;;6.15;3.38;;;;;;;;;;5028867;28;20307;-63
2022/08/23 12:24:46;;;;;;;4.70;3.40;;;;;;;;;;5024541;28;20375;-62
2022/08/23 12:27:40;;;;;;;5.57;2.85;;;;;;;;;;5026325;28;20220;-63
2022/08/23 12:30:06;;;;;;;8.65;3.67;;;;;;;;;;5028620;28;20220;-62
2022/08/23 12:32:55;;;;;;;9.98;3.50;;;;;;;;;;5039218;28;20193;-63
2022/08/23 12:35:49;;;;;;;5.13;3.33;;;;;;;;;;5028404;28;20212;-63
2022/08/23 12:38:29;;;;;;;6.20;3.30;;;;;;;;;;5018695;28;20472;-63
2022/08/23 12:40:54;;;;;;;8.25;3.50;;;;;;;;;;5026757;28;20408;-63
2022/08/23 12:43:28;;;;;;;5.85;3.28;;;;;;;;;;5028362;28;20228;-64
2022/08/23 12:45:56;;;;;;;8.10;3.10;;;;;;;;;;5028065;28;20181;-63
2022/08/23 12:48:25;;;;;;;6.07;3.50;;;;;;;;;;5028760;28;20239;-63
2022/08/23 12:51:00;;;;;;;5.00;2.97;;;;;;;;;;5028372;28;20289;-63
2022/08/23 12:53:35;;;;;;;5.63;3.53;;;;;;;;;;5027816;28;20189;-63
2022/08/23 12:56:14;;;;;;;9.57;3.47;;;;;;;;;;5024595;28;20647;-63
2022/08/23 12:58:46;;;;;;;6.03;3.17;;;;;;;;;;5025993;28;20697;-63
2022/08/23 13:01:28;;;;;;;8.73;3.50;;;;;;;;;;5025807;28;20174;-63
2022/08/23 13:03:59;;;;;;;4.75;2.85;;;;;;;;;;5027870;28;20645;-63
2022/08/23 13:06:33;;;;;;;6.57;3.85;;;;;;;;;;5028766;28;20221;-63
2022/08/23 13:09:01;;;;;;;7.30;3.80;;;;;;;;;;5031960;28;20170;-63
2022/08/23 13:11:30;;;;;;;4.13;3.10;;;;;;;;;;5022086;28;20563;-63
2022/08/23 13:13:55;;;;;;;3.78;2.85;;;;;;;;;;5023895;28;20186;-63
2022/08/23 13:16:23;;;;;;;5.07;3.03;;;;;;;;;;5020535;28;20182;-63
2022/08/23 13:18:48;;;;;;;9.15;3.67;;;;;;;;;;5025021;28;20208;-63
2022/08/23 13:21:30;;;;;;;8.05;4.35;;;;;;;;;;5016480;28;20185;-63
2022/08/23 13:23:59;;;;;;;7.95;3.83;;;;;;;;;;5027397;28;20184;-63
2022/08/23 13:26:33;;;;;;;6.15;3.50;;;;;;;;;;5017758;28;20213;-63
2022/08/23 13:29:19;;;;;;;5.20;3.97;;;;;;;;;;5025130;28;20181;-63
2022/08/23 13:31:52;;;;;;;4.50;3.33;;;;;;;;;;5038919;28;20588;-63
2022/08/23 13:34:34;;;;;;;7.78;3.88;;;;;;;;;;5027150;28;20197;-62
2022/08/23 13:37:03;;;;;;;4.95;3.20;;;;;;;;;;5028552;28;20181;-63
2022/08/23 13:39:30;;;;;;;11.98;3.83;;;;;;;;;;5027058;28;20204;-63
2022/08/23 13:41:56;;;;;;;5.38;3.42;;;;;;;;;;5028493;28;20222;-65
2022/08/23 13:44:24;;;;;;;5.45;3.22;;;;;;;;;;5025833;28;20664;-65
2022/08/23 13:46:49;;;;;;;7.88;3.58;;;;;;;;;;5028247;28;20188;-63
2022/08/23 13:49:27;;;;;;;6.82;3.00;;;;;;;;;;5025114;28;20552;-63
2022/08/23 13:51:58;;;;;;;7.43;3.72;;;;;;;;;;5028740;28;20185;-63
2022/08/23 13:54:25;;;;;;;7.47;3.85;;;;;;;;;;5024007;28;20186;-63
2022/08/23 13:56:53;;;;;;;6.68;3.72;;;;;;;;;;5028726;28;20193;-63
2022/08/23 13:59:28;;;;;;;8.95;3.33;;;;;;;;;;5022596;28;20205;-63
2022/08/23 14:01:54;;;;;;;13.02;4.28;;;;;;;;;;5017117;28;20178;-63
2022/08/23 14:04:19;;;;;;;8.95;3.75;;;;;;;;;;5027028;28;20185;-63
2022/08/23 14:06:45;;;;;;;8.57;3.90;;;;;;;;;;5026924;28;20851;-65
2022/08/23 14:09:11;;;;;;;7.10;3.17;;;;;;;;;;5036403;28;20204;-65
2022/08/23 14:11:37;;;;;;;6.72;3.03;;;;;;;;;;5027313;28;20217;-63
2022/08/23 14:14:03;;;;;;;4.88;2.95;;;;;;;;;;5027832;28;20569;-63
2022/08/23 14:16:33;;;;;;;3.67;2.92;;;;;;;;;;5028377;28;20178;-63
2022/08/23 14:18:58;;;;;;;6.40;3.20;;;;;;;;;;5025472;28;20182;-63
2022/08/23 14:21:24;;;;;;;8.05;3.47;;;;;;;;;;5020015;28;20235;-63
2022/08/23 14:23:49;;;;;;;7.45;3.65;;;;;;;;;;5030256;28;20201;-63
2022/08/23 14:26:18;;;;;;;8.77;3.55;;;;;;;;;;5020285;28;20255;-63
2022/08/23 14:28:44;;;;;;;10.23;3.15;;;;;;;;;;5031565;28;20177;-63
2022/08/23 14:31:10;;;;;;;6.63;3.10;;;;;;;;;;5034923;28;20232;-63
2022/08/23 14:33:36;;;;;;;5.30;3.00;;;;;;;;;;5037587;28;20182;-63
2022/08/23 14:36:03;;;;;;;6.30;3.30;;;;;;;;;;5019025;28;20189;-63
2022/08/23 14:38:28;;;;;;;9.60;3.10;;;;;;;;;;5031509;28;20292;-63
2022/08/23 14:41:02;;;;;;;8.15;3.05;;;;;;;;;;5030418;28;20273;-63
2022/08/23 14:43:30;;;;;;;7.80;3.17;;;;;;;;;;5032056;28;20224;-63
2022/08/23 14:45:56;;;;;;;7.50;3.50;;;;;;;;;;5017905;28;20189;-65
2022/08/23 14:48:24;;;;;;;5.78;3.25;;;;;;;;;;5031741;28;20529;-65
2022/08/23 14:50:50;;;;;;;5.53;2.88;;;;;;;;;;5028172;28;20214;-65
2022/08/23 14:53:19;;;;;;;5.53;2.58;;;;;;;;;;5031075;28;20177;-68
2022/08/23 14:55:45;;;;;;;9.05;3.20;;;;;;;;;;5016915;28;20225;-64